Time;durP1;ratioP1;P1;durP2;ratioP2;P2;SDS_P1;SDS_P2;PMS_P1;PMS_P2;Temp;Humidity;BMP_temperature;BMP_pressure;BME280_temperature;BME280_humidity;BME280_pressure;Samples;Min_cycle;Max_cycle;Signal;HPM_P1;HPM_P2
2023/10/06 00:01:07;;;;;;;10.30;4.20;;;;;;;;;;4967736;28;20039;-86
2023/10/06 00:03:33;;;;;;;14.13;4.53;;;;;;;;;;4958378;28;20078;-87
2023/10/06 00:05:59;;;;;;;8.55;3.80;;;;;;;;;;4957465;28;20038;-86
2023/10/06 00:08:32;;;;;;;11.43;4.13;;;;;;;;;;4971067;28;20061;-85
2023/10/06 00:11:11;;;;;;;9.82;3.67;;;;;;;;;;4966320;28;20428;-86
2023/10/06 00:13:38;;;;;;;10.60;4.35;;;;;;;;;;4962337;28;20129;-86
2023/10/06 00:16:07;;;;;;;11.43;4.10;;;;;;;;;;4960588;28;20081;-86
2023/10/06 00:18:36;;;;;;;10.23;4.00;;;;;;;;;;4968790;28;20046;-86
2023/10/06 00:21:14;;;;;;;12.35;4.35;;;;;;;;;;4973339;28;20058;-86
2023/10/06 00:23:43;;;;;;;11.63;4.32;;;;;;;;;;4963055;28;20063;-86
2023/10/06 00:26:16;;;;;;;15.52;4.32;;;;;;;;;;4961945;28;20054;-87
2023/10/06 00:28:44;;;;;;;12.32;4.43;;;;;;;;;;4955795;28;20049;-86
2023/10/06 00:31:12;;;;;;;12.50;4.47;;;;;;;;;;4976671;28;20454;-86
2023/10/06 00:33:41;;;;;;;10.65;4.25;;;;;;;;;;4953773;28;20057;-86
2023/10/06 00:36:13;;;;;;;14.82;4.47;;;;;;;;;;4975576;28;20078;-86
2023/10/06 00:38:45;;;;;;;11.63;4.10;;;;;;;;;;4954714;28;20058;-86
2023/10/06 00:41:14;;;;;;;17.02;4.93;;;;;;;;;;4954835;28;20143;-86
2023/10/06 00:43:43;;;;;;;13.07;4.57;;;;;;;;;;4973976;28;20039;-85
2023/10/06 00:46:10;;;;;;;9.80;4.45;;;;;;;;;;4972451;28;20054;-86
2023/10/06 00:48:40;;;;;;;12.77;4.88;;;;;;;;;;4967505;28;20054;-85
2023/10/06 00:51:10;;;;;;;12.32;4.68;;;;;;;;;;4974771;28;20502;-87
2023/10/06 00:53:36;;;;;;;12.10;4.82;;;;;;;;;;4993332;28;20510;-86
2023/10/06 00:56:08;;;;;;;13.05;4.80;;;;;;;;;;4978363;28;20057;-85
2023/10/06 00:58:35;;;;;;;12.32;4.43;;;;;;;;;;4971940;28;20178;-86
2023/10/06 01:01:05;;;;;;;10.80;4.10;;;;;;;;;;4984917;28;20064;-86
2023/10/06 01:03:38;;;;;;;13.95;4.35;;;;;;;;;;4963478;28;20066;-86
2023/10/06 01:06:08;;;;;;;11.82;4.45;;;;;;;;;;4988922;28;20140;-86
2023/10/06 01:08:34;;;;;;;14.88;4.78;;;;;;;;;;4973209;28;20219;-85
2023/10/06 01:11:11;;;;;;;9.30;4.15;;;;;;;;;;4960027;28;20050;-86
2023/10/06 01:13:52;;;;;;;13.95;5.07;;;;;;;;;;4957531;28;20057;-88
2023/10/06 01:16:18;;;;;;;11.70;4.32;;;;;;;;;;4966232;28;20072;-87
2023/10/06 01:18:44;;;;;;;12.75;5.05;;;;;;;;;;4954921;28;20046;-88
2023/10/06 01:21:17;;;;;;;18.58;4.90;;;;;;;;;;4962719;28;20061;-86
2023/10/06 01:23:44;;;;;;;12.38;4.50;;;;;;;;;;4956249;28;20057;-86
2023/10/06 01:26:13;;;;;;;17.42;4.60;;;;;;;;;;4973371;28;20168;-88
2023/10/06 01:28:45;;;;;;;13.25;4.93;;;;;;;;;;4958031;28;20405;-84
2023/10/06 01:31:12;;;;;;;16.50;4.70;;;;;;;;;;4981497;28;20046;-85
2023/10/06 01:33:39;;;;;;;14.68;5.00;;;;;;;;;;4972002;28;20054;-86
2023/10/06 01:36:13;;;;;;;14.32;4.80;;;;;;;;;;4960424;28;20134;-86
2023/10/06 01:38:41;;;;;;;16.80;4.55;;;;;;;;;;4964229;28;20058;-86
2023/10/06 01:41:08;;;;;;;13.45;4.63;;;;;;;;;;4961137;28;20599;-85
2023/10/06 01:43:34;;;;;;;14.18;4.50;;;;;;;;;;4962044;28;20050;-86
2023/10/06 01:46:01;;;;;;;15.43;4.95;;;;;;;;;;4957093;28;20054;-86
2023/10/06 01:48:31;;;;;;;13.35;5.20;;;;;;;;;;4962103;28;20085;-85
2023/10/06 01:50:57;;;;;;;14.57;5.13;;;;;;;;;;4966952;28;20042;-86
2023/10/06 01:53:25;;;;;;;12.95;5.47;;;;;;;;;;4962584;28;20097;-86
2023/10/06 01:55:54;;;;;;;9.63;4.85;;;;;;;;;;4972761;28;20055;-86
2023/10/06 01:58:20;;;;;;;14.13;5.30;;;;;;;;;;4988388;28;20057;-87
2023/10/06 02:00:50;;;;;;;12.52;5.30;;;;;;;;;;4967643;28;20054;-86
2023/10/06 02:03:21;;;;;;;15.52;5.57;;;;;;;;;;4958621;28;20534;-85
2023/10/06 02:05:47;;;;;;;12.80;5.50;;;;;;;;;;4965758;28;20049;-87
2023/10/06 02:08:22;;;;;;;12.02;5.97;;;;;;;;;;4965394;28;20087;-87
2023/10/06 02:10:50;;;;;;;19.55;6.72;;;;;;;;;;4970783;28;20053;-86
2023/10/06 02:13:21;;;;;;;13.02;5.90;;;;;;;;;;4961074;28;20057;-86
2023/10/06 02:15:58;;;;;;;16.92;6.47;;;;;;;;;;4959638;28;20058;-86
2023/10/06 02:18:35;;;;;;;17.33;6.18;;;;;;;;;;4961425;28;20418;-86
2023/10/06 02:21:04;;;;;;;15.45;6.25;;;;;;;;;;4961325;28;20049;-86
2023/10/06 02:23:30;;;;;;;15.68;6.85;;;;;;;;;;4983427;28;20459;-87
2023/10/06 02:25:56;;;;;;;14.73;6.57;;;;;;;;;;4952621;28;20051;-86
2023/10/06 02:28:22;;;;;;;16.60;6.72;;;;;;;;;;4958587;28;20428;-86
2023/10/06 02:30:51;;;;;;;14.35;6.88;;;;;;;;;;4980423;28;20039;-86
2023/10/06 02:33:17;;;;;;;15.00;6.63;;;;;;;;;;4952619;28;20142;-86
2023/10/06 02:35:46;;;;;;;13.85;6.22;;;;;;;;;;4967140;28;20054;-86
2023/10/06 02:38:12;;;;;;;13.20;6.63;;;;;;;;;;4958624;28;20495;-86
2023/10/06 02:40:45;;;;;;;17.38;6.78;;;;;;;;;;4952218;28;20527;-86
2023/10/06 02:43:19;;;;;;;14.88;6.55;;;;;;;;;;4960301;28;20491;-86
2023/10/06 02:45:45;;;;;;;14.85;6.93;;;;;;;;;;4973669;28;20054;-86
2023/10/06 02:48:16;;;;;;;15.52;7.00;;;;;;;;;;4959553;28;20134;-86
2023/10/06 02:50:45;;;;;;;14.77;7.03;;;;;;;;;;4960228;28;20046;-86
2023/10/06 02:53:15;;;;;;;17.38;7.47;;;;;;;;;;4977403;28;20047;-86
2023/10/06 02:55:44;;;;;;;15.88;7.13;;;;;;;;;;4983876;28;20050;-86
2023/10/06 02:58:26;;;;;;;14.00;7.20;;;;;;;;;;4985437;28;20464;-86
2023/10/06 03:00:55;;;;;;;15.85;7.53;;;;;;;;;;4973854;28;20058;-86
2023/10/06 03:03:26;;;;;;;17.02;7.47;;;;;;;;;;4992601;28;20129;-87
2023/10/06 03:05:53;;;;;;;16.23;7.20;;;;;;;;;;4958607;28;20161;-86
2023/10/06 03:08:30;;;;;;;16.58;7.53;;;;;;;;;;4956369;28;20061;-86
2023/10/06 03:10:56;;;;;;;18.92;7.45;;;;;;;;;;4973948;28;20117;-87
2023/10/06 03:13:33;;;;;;;16.83;7.55;;;;;;;;;;4973366;28;20054;-86
2023/10/06 03:15:59;;;;;;;14.95;7.85;;;;;;;;;;4993030;28;20042;-87
2023/10/06 03:18:26;;;;;;;16.08;7.50;;;;;;;;;;4982138;28;20047;-86
2023/10/06 03:23:57;;;;;;;16.33;8.32;;;;;;;;;;4952184;28;20517;-86
2023/10/06 03:26:33;;;;;;;19.25;8.75;;;;;;;;;;4957192;28;20054;-85
2023/10/06 03:29:02;;;;;;;17.48;7.60;;;;;;;;;;4955750;28;20458;-86
2023/10/06 03:31:47;;;;;;;17.65;8.18;;;;;;;;;;4956899;28;20039;-86
2023/10/06 03:34:16;;;;;;;16.67;8.10;;;;;;;;;;4972427;28;20755;-86
2023/10/06 03:36:51;;;;;;;16.85;8.30;;;;;;;;;;4962391;28;20042;-86
2023/10/06 03:39:28;;;;;;;17.33;8.52;;;;;;;;;;4964223;28;20388;-85
2023/10/06 03:42:00;;;;;;;20.23;9.07;;;;;;;;;;4956070;28;20054;-86
2023/10/06 03:44:26;;;;;;;22.42;9.80;;;;;;;;;;4978579;28;20063;-86
2023/10/06 03:46:55;;;;;;;22.30;9.82;;;;;;;;;;4981353;28;20038;-86
2023/10/06 03:49:21;;;;;;;16.67;9.98;;;;;;;;;;4977015;28;20043;-86
2023/10/06 03:51:47;;;;;;;23.08;10.88;;;;;;;;;;4971474;28;20213;-86
2023/10/06 03:54:13;;;;;;;19.75;9.75;;;;;;;;;;4974329;28;20046;-86
2023/10/06 03:56:39;;;;;;;19.35;9.90;;;;;;;;;;4991014;28;20490;-86
2023/10/06 03:59:12;;;;;;;23.77;10.65;;;;;;;;;;4967317;28;20554;-86
2023/10/06 04:01:38;;;;;;;20.45;10.65;;;;;;;;;;4966363;28;20059;-86
2023/10/06 04:04:05;;;;;;;19.05;10.48;;;;;;;;;;4973433;28;20049;-86
2023/10/06 04:06:35;;;;;;;19.15;11.60;;;;;;;;;;4965272;28;20391;-86
2023/10/06 04:09:01;;;;;;;19.42;11.07;;;;;;;;;;4971455;28;20058;-85
2023/10/06 04:11:31;;;;;;;20.25;11.05;;;;;;;;;;4974436;28;20062;-87
2023/10/06 04:13:58;;;;;;;23.35;11.32;;;;;;;;;;4956698;28;20054;-85
2023/10/06 04:16:25;;;;;;;21.98;11.57;;;;;;;;;;4971462;28;20462;-86
2023/10/06 04:18:51;;;;;;;23.20;11.27;;;;;;;;;;4954494;28;20054;-85
2023/10/06 04:21:17;;;;;;;20.70;11.48;;;;;;;;;;4954650;28;20043;-86
2023/10/06 04:23:43;;;;;;;20.40;10.82;;;;;;;;;;4967791;28;20447;-85
2023/10/06 04:26:10;;;;;;;18.85;10.80;;;;;;;;;;4954041;28;20376;-86
2023/10/06 04:28:37;;;;;;;22.27;11.77;;;;;;;;;;4963240;28;20050;-85
2023/10/06 04:31:05;;;;;;;22.85;11.82;;;;;;;;;;4960162;28;20061;-86
2023/10/06 04:33:31;;;;;;;23.92;10.52;;;;;;;;;;4965245;28;20495;-85
2023/10/06 04:36:07;;;;;;;21.20;11.15;;;;;;;;;;4965140;28;20142;-86
2023/10/06 04:38:36;;;;;;;;;;;;;;;;;;4988778;28;20050;-86
2023/10/06 04:41:02;;;;;;;21.88;10.98;;;;;;;;;;4968245;28;19922;-86
2023/10/06 04:43:28;;;;;;;18.83;10.82;;;;;;;;;;4984074;28;20077;-85
2023/10/06 04:45:55;;;;;;;18.17;11.25;;;;;;;;;;4971967;28;20130;-87
2023/10/06 04:48:24;;;;;;;21.02;11.00;;;;;;;;;;4963578;28;20062;-86
2023/10/06 04:50:55;;;;;;;20.67;10.43;;;;;;;;;;4961141;28;20046;-88
2023/10/06 04:53:22;;;;;;;15.45;10.00;;;;;;;;;;4982377;28;20142;-87
2023/10/06 04:55:48;;;;;;;16.83;10.13;;;;;;;;;;4995325;28;20054;-87
2023/10/06 04:58:15;;;;;;;19.63;10.20;;;;;;;;;;4965102;28;20531;-87
2023/10/06 05:00:49;;;;;;;21.00;9.85;;;;;;;;;;4987079;28;20137;-87
2023/10/06 05:03:15;;;;;;;22.30;10.20;;;;;;;;;;4975959;28;20042;-86
2023/10/06 05:05:42;;;;;;;18.10;9.73;;;;;;;;;;4967711;28;20550;-85
2023/10/06 05:08:09;;;;;;;22.73;10.30;;;;;;;;;;4964891;28;20051;-87
2023/10/06 05:10:36;;;;;;;18.95;9.25;;;;;;;;;;4971664;28;20581;-86
2023/10/06 05:13:06;;;;;;;17.90;8.90;;;;;;;;;;4974015;28;20085;-86
2023/10/06 05:15:33;;;;;;;21.52;9.13;;;;;;;;;;4983946;28;20093;-86
2023/10/06 05:18:04;;;;;;;17.48;8.90;;;;;;;;;;4969591;28;20074;-86
2023/10/06 05:20:35;;;;;;;21.48;9.30;;;;;;;;;;4969045;28;20533;-86
2023/10/06 05:23:07;;;;;;;19.48;8.93;;;;;;;;;;4988058;28;20062;-86
2023/10/06 05:25:56;;;;;;;16.65;8.70;;;;;;;;;;4955085;28;20121;-86
2023/10/06 05:28:22;;;;;;;20.55;9.15;;;;;;;;;;4983540;28;20347;-86
2023/10/06 05:30:48;;;;;;;19.23;9.40;;;;;;;;;;4961272;28;20078;-85
2023/10/06 05:33:14;;;;;;;18.95;9.38;;;;;;;;;;4953848;28;20058;-86
2023/10/06 05:35:41;;;;;;;17.90;9.38;;;;;;;;;;4959233;28;20050;-86
2023/10/06 05:38:08;;;;;;;17.70;8.77;;;;;;;;;;4971788;28;20050;-86
2023/10/06 05:40:37;;;;;;;16.42;8.85;;;;;;;;;;4954248;28;20497;-86
2023/10/06 05:43:11;;;;;;;18.38;9.13;;;;;;;;;;4960858;28;20414;-86
2023/10/06 05:45:39;;;;;;;15.30;8.63;;;;;;;;;;4977134;28;20110;-86
2023/10/06 05:48:08;;;;;;;18.63;9.65;;;;;;;;;;4979468;28;20131;-86
2023/10/06 05:50:35;;;;;;;17.13;9.35;;;;;;;;;;4972900;28;20125;-86
2023/10/06 05:53:02;;;;;;;21.00;8.90;;;;;;;;;;4980845;28;20184;-86
2023/10/06 05:55:30;;;;;;;16.42;8.98;;;;;;;;;;4955494;28;20038;-86
2023/10/06 05:57:56;;;;;;;19.85;8.70;;;;;;;;;;4978937;28;20050;-86
2023/10/06 06:00:27;;;;;;;17.63;8.38;;;;;;;;;;4963170;28;20092;-86
2023/10/06 06:02:53;;;;;;;19.77;8.73;;;;;;;;;;4970303;28;20062;-86
2023/10/06 06:05:20;;;;;;;17.30;9.38;;;;;;;;;;4961874;28;20079;-85
2023/10/06 06:07:46;;;;;;;18.98;9.32;;;;;;;;;;4969093;28;20392;-86
2023/10/06 06:10:13;;;;;;;17.80;8.85;;;;;;;;;;4965982;28;20386;-86
2023/10/06 06:12:42;;;;;;;16.92;8.32;;;;;;;;;;4982044;28;20051;-85
2023/10/06 06:15:11;;;;;;;14.55;8.57;;;;;;;;;;4972094;28;20129;-85
2023/10/06 06:17:37;;;;;;;16.83;8.95;;;;;;;;;;4942327;28;20047;-86
2023/10/06 06:20:03;;;;;;;16.38;8.55;;;;;;;;;;4979515;28;20047;-86
2023/10/06 06:22:29;;;;;;;21.58;9.27;;;;;;;;;;4975058;28;20086;-85
2023/10/06 06:24:56;;;;;;;17.95;9.02;;;;;;;;;;4979988;28;20483;-86
2023/10/06 06:27:22;;;;;;;19.17;9.15;;;;;;;;;;4974248;28;20543;-88
2023/10/06 06:29:49;;;;;;;17.15;8.98;;;;;;;;;;4974717;28;20386;-86
2023/10/06 06:32:18;;;;;;;21.40;9.32;;;;;;;;;;4973109;28;20051;-85
2023/10/06 06:34:45;;;;;;;19.33;8.90;;;;;;;;;;4946652;28;20150;-85
2023/10/06 06:37:12;;;;;;;20.63;8.75;;;;;;;;;;4965580;28;20138;-85
2023/10/06 06:39:44;;;;;;;17.38;9.10;;;;;;;;;;4943401;28;20054;-86
2023/10/06 06:42:10;;;;;;;17.48;9.20;;;;;;;;;;4976101;28;20499;-85
2023/10/06 06:44:36;;;;;;;18.05;9.85;;;;;;;;;;4975538;28;20065;-85
2023/10/06 06:47:03;;;;;;;15.43;8.57;;;;;;;;;;4957127;28;20154;-85
2023/10/06 06:49:29;;;;;;;18.65;8.70;;;;;;;;;;4957407;28;20047;-85
2023/10/06 06:51:58;;;;;;;19.30;9.40;;;;;;;;;;4983473;28;20039;-86
2023/10/06 06:54:27;;;;;;;17.17;8.80;;;;;;;;;;4953156;28;20049;-86
2023/10/06 06:56:53;;;;;;;17.38;8.98;;;;;;;;;;4963428;28;20045;-85
2023/10/06 06:59:20;;;;;;;18.88;8.95;;;;;;;;;;4969907;28;20542;-84
2023/10/06 07:01:47;;;;;;;18.20;8.57;;;;;;;;;;4968580;28;20426;-85
2023/10/06 07:04:14;;;;;;;19.50;8.90;;;;;;;;;;4962772;28;20047;-84
2023/10/06 07:06:40;;;;;;;16.77;8.60;;;;;;;;;;4975425;28;20042;-85
2023/10/06 07:09:12;;;;;;;20.10;8.35;;;;;;;;;;4973828;28;20130;-85
2023/10/06 07:11:42;;;;;;;16.77;9.07;;;;;;;;;;4959652;28;20081;-85
2023/10/06 07:14:09;;;;;;;17.80;9.15;;;;;;;;;;4969170;28;20514;-84
2023/10/06 07:16:36;;;;;;;16.85;9.07;;;;;;;;;;4956233;28;20047;-85
2023/10/06 07:19:02;;;;;;;17.30;8.75;;;;;;;;;;4955837;28;20046;-86
2023/10/06 07:21:29;;;;;;;19.00;8.88;;;;;;;;;;4955372;28;20074;-83
2023/10/06 07:23:56;;;;;;;18.00;9.68;;;;;;;;;;4965230;28;20062;-83
2023/10/06 07:26:23;;;;;;;16.42;8.95;;;;;;;;;;4972282;28;20074;-83
2023/10/06 07:28:52;;;;;;;20.55;8.82;;;;;;;;;;4955355;28;20046;-83
2023/10/06 07:31:19;;;;;;;20.10;8.73;;;;;;;;;;4966241;28;20038;-84
2023/10/06 07:33:47;;;;;;;21.60;8.57;;;;;;;;;;4955986;28;20047;-84
2023/10/06 07:36:19;;;;;;;18.05;8.23;;;;;;;;;;4960571;28;20411;-83
2023/10/06 07:38:45;;;;;;;18.48;8.88;;;;;;;;;;4952499;28;20051;-83
2023/10/06 07:41:25;;;;;;;18.60;8.25;;;;;;;;;;4965864;28;20110;-83
2023/10/06 07:43:51;;;;;;;18.85;8.80;;;;;;;;;;4952339;28;20049;-83
2023/10/06 07:46:17;;;;;;;19.55;9.32;;;;;;;;;;4988484;28;20057;-84
2023/10/06 07:48:47;;;;;;;24.15;10.00;;;;;;;;;;4991787;28;20145;-86
2023/10/06 07:51:13;;;;;;;19.40;9.32;;;;;;;;;;4966249;28;20437;-86
2023/10/06 07:53:40;;;;;;;18.83;9.38;;;;;;;;;;4967985;28;20051;-87
2023/10/06 07:56:06;;;;;;;21.27;9.65;;;;;;;;;;4988143;28;20092;-82
2023/10/06 07:58:38;;;;;;;20.00;10.48;;;;;;;;;;4974446;28;20038;-83
2023/10/06 08:01:08;;;;;;;21.42;10.32;;;;;;;;;;4976981;28;20495;-86
2023/10/06 08:03:38;;;;;;;24.10;10.32;;;;;;;;;;4988477;28;20469;-85
2023/10/06 08:06:07;;;;;;;18.95;10.02;;;;;;;;;;4958318;28;20053;-84
2023/10/06 08:08:34;;;;;;;19.35;10.00;;;;;;;;;;4955475;28;20055;-84
2023/10/06 08:11:05;;;;;;;22.30;10.10;;;;;;;;;;4955458;28;20043;-84
2023/10/06 08:13:33;;;;;;;23.30;11.02;;;;;;;;;;4958076;28;20051;-84
2023/10/06 08:15:59;;;;;;;23.10;9.75;;;;;;;;;;4956006;28;20464;-85
2023/10/06 08:18:28;;;;;;;18.60;9.27;;;;;;;;;;4987080;28;20509;-85
2023/10/06 08:20:54;;;;;;;22.80;10.45;;;;;;;;;;4985731;28;20046;-83
2023/10/06 08:23:20;;;;;;;19.05;10.20;;;;;;;;;;4976712;28;20356;-83
2023/10/06 08:25:46;;;;;;;19.98;10.27;;;;;;;;;;4980807;28;20078;-84
2023/10/06 08:28:13;;;;;;;20.13;10.73;;;;;;;;;;4966970;28;20054;-83
2023/10/06 08:30:43;;;;;;;22.33;9.82;;;;;;;;;;4953323;28;20058;-85
2023/10/06 08:33:10;;;;;;;18.95;10.05;;;;;;;;;;4980671;28;20052;-85
2023/10/06 08:35:36;;;;;;;20.48;9.70;;;;;;;;;;4965621;28;20058;-83
2023/10/06 08:38:03;;;;;;;16.95;9.50;;;;;;;;;;4952347;28;20137;-84
2023/10/06 08:40:30;;;;;;;20.92;9.32;;;;;;;;;;4969948;28;20102;-83
2023/10/06 08:42:57;;;;;;;24.48;9.80;;;;;;;;;;4954961;28;20066;-84
2023/10/06 08:45:24;;;;;;;20.05;9.52;;;;;;;;;;4963286;28;20443;-83
2023/10/06 08:47:53;;;;;;;20.05;9.60;;;;;;;;;;4956759;28;20376;-83
2023/10/06 08:50:22;;;;;;;19.40;9.25;;;;;;;;;;4952745;28;20034;-83
2023/10/06 08:52:52;;;;;;;18.10;8.85;;;;;;;;;;4952415;28;20042;-84
2023/10/06 08:55:22;;;;;;;16.58;8.68;;;;;;;;;;4952854;28;20122;-83
2023/10/06 08:57:50;;;;;;;18.02;8.30;;;;;;;;;;4965645;28;20047;-83
2023/10/06 09:00:17;;;;;;;17.55;8.18;;;;;;;;;;4952639;28;20500;-83
2023/10/06 09:02:47;;;;;;;18.75;8.20;;;;;;;;;;4960027;28;20418;-83
2023/10/06 09:05:14;;;;;;;16.65;7.88;;;;;;;;;;4960577;28;20093;-83
2023/10/06 09:07:57;;;;;;;18.02;7.60;;;;;;;;;;4953671;28;20361;-82
2023/10/06 09:10:23;;;;;;;19.02;7.55;;;;;;;;;;4971981;28;20037;-82
2023/10/06 09:13:02;;;;;;;19.52;7.82;;;;;;;;;;4971792;28;20395;-83
2023/10/06 09:15:28;;;;;;;20.85;8.23;;;;;;;;;;4953855;28;20069;-82
2023/10/06 09:17:56;;;;;;;18.88;7.68;;;;;;;;;;4971713;28;20400;-83
2023/10/06 09:20:29;;;;;;;19.45;7.68;;;;;;;;;;4953668;28;20496;-82
2023/10/06 09:22:55;;;;;;;19.38;6.75;;;;;;;;;;4963136;28;20071;-82
2023/10/06 09:25:22;;;;;;;18.73;7.45;;;;;;;;;;4971353;28;20423;-82
2023/10/06 09:27:51;;;;;;;20.17;7.00;;;;;;;;;;4969923;28;20435;-81
2023/10/06 09:30:20;;;;;;;18.65;6.93;;;;;;;;;;4953976;28;20047;-82
2023/10/06 09:32:48;;;;;;;17.52;6.97;;;;;;;;;;4986285;28;20058;-81
2023/10/06 09:35:25;;;;;;;19.17;7.20;;;;;;;;;;4955490;28;20132;-80
2023/10/06 09:37:51;;;;;;;19.58;6.88;;;;;;;;;;4949293;28;20384;-81
2023/10/06 09:40:22;;;;;;;17.63;6.10;;;;;;;;;;4969126;28;20050;-80
2023/10/06 09:42:48;;;;;;;18.33;6.22;;;;;;;;;;4956863;28;20039;-80
2023/10/06 09:45:17;;;;;;;15.40;6.07;;;;;;;;;;4984785;28;20042;-81
2023/10/06 09:47:50;;;;;;;15.82;6.20;;;;;;;;;;4972711;28;20224;-81
2023/10/06 09:50:18;;;;;;;16.67;6.07;;;;;;;;;;4953792;28;20050;-82
2023/10/06 09:52:47;;;;;;;14.85;6.15;;;;;;;;;;4973900;28;20053;-83
2023/10/06 09:55:14;;;;;;;15.40;5.60;;;;;;;;;;4952767;28;20065;-84
2023/10/06 09:57:47;;;;;;;16.83;5.72;;;;;;;;;;4964571;28;20061;-81
2023/10/06 10:00:16;;;;;;;18.45;6.05;;;;;;;;;;4962576;28;20061;-86
2023/10/06 10:02:47;;;;;;;16.75;5.43;;;;;;;;;;4952235;28;20043;-81
2023/10/06 10:05:20;;;;;;;19.08;5.72;;;;;;;;;;4951104;28;20046;-81
2023/10/06 10:07:49;;;;;;;12.85;5.35;;;;;;;;;;4972343;28;20049;-81
2023/10/06 10:10:27;;;;;;;17.20;5.93;;;;;;;;;;4952884;28;20047;-81
2023/10/06 10:12:56;;;;;;;17.02;5.47;;;;;;;;;;4968481;28;20058;-82
2023/10/06 10:15:30;;;;;;;16.83;5.30;;;;;;;;;;4955294;28;20050;-82
2023/10/06 10:18:11;;;;;;;14.05;5.18;;;;;;;;;;4955020;28;20085;-81
2023/10/06 10:20:37;;;;;;;16.00;5.15;;;;;;;;;;4959711;28;20046;-81
2023/10/06 10:23:04;;;;;;;16.20;5.03;;;;;;;;;;4982141;28;20406;-80
2023/10/06 10:25:30;;;;;;;15.07;4.75;;;;;;;;;;4960334;28;20430;-85
2023/10/06 10:28:27;;;;;;;19.33;5.88;;;;;;;;;;4982305;28;20430;-82
2023/10/06 10:31:00;;;;;;;13.73;5.10;;;;;;;;;;4965220;28;20065;-83
2023/10/06 10:33:30;;;;;;;14.13;5.25;;;;;;;;;;4966863;28;20082;-83
2023/10/06 10:36:20;;;;;;;18.15;5.28;;;;;;;;;;4949012;28;20508;-82
2023/10/06 10:38:57;;;;;;;17.95;4.90;;;;;;;;;;4949825;28;20039;-83
2023/10/06 10:41:27;;;;;;;15.00;5.72;;;;;;;;;;4967547;28;20093;-82
2023/10/06 10:43:55;;;;;;;18.83;5.63;;;;;;;;;;4950018;28;20043;-83
2023/10/06 10:46:44;;;;;;;15.55;5.60;;;;;;;;;;4949000;28;20050;-82
2023/10/06 10:49:13;;;;;;;13.23;5.22;;;;;;;;;;4944948;28;20051;-83
2023/10/06 10:52:09;;;;;;;21.90;5.47;;;;;;;;;;4948753;28;20053;-82
2023/10/06 10:54:35;;;;;;;;;;;;;;;;;;4953926;28;20754;-82
2023/10/06 10:57:09;;;;;;;16.67;5.35;;;;;;;;;;4966518;28;19984;-82
2023/10/06 10:59:56;;;;;;;20.20;5.38;;;;;;;;;;4948711;28;20078;-81
2023/10/06 11:02:22;;;;;;;15.95;5.05;;;;;;;;;;4976307;28;20447;-82
2023/10/06 11:04:49;;;;;;;13.88;4.82;;;;;;;;;;4967752;28;20391;-82
2023/10/06 11:07:16;;;;;;;16.70;4.45;;;;;;;;;;4951659;28;20054;-82
2023/10/06 11:09:47;;;;;;;11.50;4.10;;;;;;;;;;4961463;28;20050;-82
2023/10/06 11:12:24;;;;;;;13.60;4.40;;;;;;;;;;4967884;28;20141;-81
2023/10/06 11:14:51;;;;;;;13.05;4.43;;;;;;;;;;4975017;28;20096;-85
2023/10/06 11:17:24;;;;;;;13.38;4.10;;;;;;;;;;4975531;28;20142;-81
2023/10/06 11:20:12;;;;;;;13.65;3.95;;;;;;;;;;4991540;28;20368;-81
2023/10/06 11:22:38;;;;;;;15.88;4.00;;;;;;;;;;4984096;28;20054;-81
2023/10/06 11:25:08;;;;;;;16.42;4.70;;;;;;;;;;4974623;28;20058;-82
2023/10/06 11:27:37;;;;;;;18.75;4.40;;;;;;;;;;4956791;28;20085;-82
2023/10/06 11:30:08;;;;;;;16.67;4.30;;;;;;;;;;4969253;28;20050;-81
2023/10/06 11:32:34;;;;;;;16.23;3.90;;;;;;;;;;4955469;28;20077;-81
2023/10/06 11:35:00;;;;;;;15.23;4.30;;;;;;;;;;4958155;28;20068;-82
2023/10/06 11:37:28;;;;;;;13.70;3.90;;;;;;;;;;4969865;28;20070;-81
2023/10/06 11:39:57;;;;;;;13.45;3.60;;;;;;;;;;4946884;28;20447;-81
2023/10/06 11:42:25;;;;;;;15.35;4.15;;;;;;;;;;4971079;28;20042;-81
2023/10/06 11:44:52;;;;;;;13.65;3.88;;;;;;;;;;4985436;28;20133;-81
2023/10/06 11:47:37;;;;;;;14.07;4.20;;;;;;;;;;4955803;28;20042;-81
2023/10/06 11:50:08;;;;;;;11.82;3.55;;;;;;;;;;4957000;28;20054;-81
2023/10/06 11:52:34;;;;;;;14.90;3.75;;;;;;;;;;4955974;28;20462;-74
